DAAG

Houari Boumediene Airport

Algiers, Algeria
METAR DAAG 171430Z 04009KT 350V070 9999 SCT026TCU FEW033CB SCT080 30/21 Q1015
Observed Flight Rules
Aug-17 @ 14:30 UTC (28 minutes ago) Visual Flight Rules
Wind Visibility Clouds
40° at 9 knots 10,000+ meters
  • Scattered at 2,600' AGL
  • Few at 3,300' AGL
  • Scattered at 8,000' AGL
Temperatures Readings
Current 30°C / 86°F
Dewpoint 21°C / 70°F
Humidity 59%
Altimeter 29.97" Hg
Pressure 1015 hPa
Elevation 25
METAR DAAG 171430Z 04009KT 350V070 9999 SCT026TCU FEW033CB SCT080 30/21 Q1015
Observed Flight Rules
Aug-17 @ 14:30 UTC
(28 minutes ago)
VFR
Wind Visibility
40° at 9 knots 10,000+ meters
Clouds
  • Scattered at 2,600' AGL
  • Few at 3,300' AGL
  • Scattered at 8,000' AGL
Temperature Dewpoint
30°C / 86°F 21°C / 70°F
Humidity Altimeter Pressure
59% 29.97" Hg 1015 hPa